Ana Sayfa
METAR-TAF:

METAR-TAF

Havaalanları :

Kerrville Municipal Airport (Louis Schreiner Field)

Kerrville, Teksas, Amerika Birleşik Devletleri

Enlem: 29-58N, Boylam: 099-05W, yükseklik: 493 m

Güncel hava durumu gözlemi

Rapor saat 22:15 UTC de 26 dakika önce yapıldı.
Sakin rüzgar
Sıcaklık 16°C
Nem 13%
Basınç 1025 hPa
Görüş mesafesi: 16.1 km
Açık gökyüzü

METAR: KERV 272215Z AUTO 00000KT 10SM CLR 16/M12 A3027 RMK AO2 T01621123

Saat: 16:41 (22:41 UTC)


TAF: eksik

4.000'den fazla havaalanı için hava durumu gözlemleri ve tahminleri (METAR ve TAF raporları).

Kullanılabilir istasyonlar harita üzerinde sarı ve kırmızı noktalarla gösterilir.

İstasyonun adını görmek için fareyi noktanın üzerinde gezdirin.

Sonrasında hava gözlem ve tahminlerini görmek için tıklayın.

Haritayı değiştirmek için: yaklaştırmak için siyah artı işaretli yeşil düğmeye ve uzaklaştırmak için de eksi işaretli düğmeye hızla tıklayın; bitişik haritalar için yeşil okları kullanın.


METAR-TAF: